Time;durP1;ratioP1;P1;durP2;ratioP2;P2;SDS_P1;SDS_P2;PMS_P1;PMS_P2;Temp;Humidity;BMP_temperature;BMP_pressure;BME280_temperature;BME280_humidity;BME280_pressure;Samples;Min_cycle;Max_cycle;Signal;HPM_P1;HPM_P2
2022/10/26 00:00:01;;;;;;;14.00;9.38;;;;;;;;;;5034848;28;20021;-80
2022/10/26 00:02:27;;;;;;;16.42;9.93;;;;;;;;;;5034283;28;20053;-81
2022/10/26 00:04:53;;;;;;;14.70;8.38;;;;;;;;;;5034309;28;20022;-80
2022/10/26 00:07:19;;;;;;;16.23;9.38;;;;;;;;;;5032874;28;20025;-79
2022/10/26 00:09:45;;;;;;;16.20;9.40;;;;;;;;;;5032435;28;20040;-79
2022/10/26 00:12:11;;;;;;;13.40;9.68;;;;;;;;;;5039365;28;20025;-78
2022/10/26 00:14:37;;;;;;;15.88;10.57;;;;;;;;;;5041174;28;20458;-78
2022/10/26 00:17:03;;;;;;;14.18;9.98;;;;;;;;;;5044411;28;20024;-80
2022/10/26 00:19:32;;;;;;;21.33;11.25;;;;;;;;;;5039829;28;20025;-80
2022/10/26 00:21:59;;;;;;;15.07;9.50;;;;;;;;;;5037099;28;20029;-81
2022/10/26 00:24:25;;;;;;;16.60;9.30;;;;;;;;;;5036106;28;20033;-80
2022/10/26 00:26:51;;;;;;;16.75;11.18;;;;;;;;;;5036805;28;20085;-81
2022/10/26 00:29:17;;;;;;;15.65;10.35;;;;;;;;;;5030879;28;20025;-81
2022/10/26 00:31:43;;;;;;;14.88;8.90;;;;;;;;;;5032834;28;20066;-81
2022/10/26 00:34:10;;;;;;;16.52;9.80;;;;;;;;;;5033462;28;20026;-81
2022/10/26 00:36:37;;;;;;;16.33;9.98;;;;;;;;;;5028572;28;20034;-81
2022/10/26 00:39:03;;;;;;;14.15;9.93;;;;;;;;;;5017940;28;20127;-81
2022/10/26 00:41:32;;;;;;;15.98;10.75;;;2.50;91.40;;;;;;5032452;28;20110;-81
2022/10/26 00:43:59;;;;;;;19.27;11.05;;;1.60;95.10;;;;;;5032305;28;20025;-82
2022/10/26 00:46:31;;;;;;;19.23;11.75;;;1.50;95.20;;;;;;5033978;28;20030;-81
2022/10/26 00:49:18;;;;;;;20.08;13.48;;;1.30;95.30;;;;;;5033789;28;20048;-79
2022/10/26 00:51:51;;;;;;;16.88;10.32;;;1.30;95.50;;;;;;5031871;28;20046;-81
2022/10/26 00:54:18;;;;;;;21.92;11.32;;;1.30;95.50;;;;;;5032833;28;20103;-80
2022/10/26 00:56:47;;;;;;;16.08;10.95;;;1.20;95.70;;;;;;5033339;28;20021;-80
2022/10/26 00:59:15;;;;;;;16.20;11.80;;;1.20;95.80;;;;;;5037043;28;20048;-80
2022/10/26 01:01:42;;;;;;;;;;;1.10;95.80;;;;;;5040327;28;20474;-81
2022/10/26 01:04:09;;;;;;;16.08;11.85;;;1.10;95.70;;;;;;5028428;28;20449;-82
2022/10/26 01:06:36;;;;;;;19.80;10.48;;;1.00;95.80;;;;;;5026232;28;20052;-81
2022/10/26 01:09:03;;;;;;;18.77;11.57;;;1.00;96.10;;;;;;5034239;28;20048;-80
2022/10/26 01:11:29;;;;;;;16.73;9.88;;;1.00;96.30;;;;;;5033490;28;20119;-81
2022/10/26 01:13:57;;;;;;;16.13;10.75;;;1.10;96.30;;;;;;5032806;28;20033;-80
2022/10/26 01:16:36;;;;;;;18.02;10.93;;;1.20;96.40;;;;;;5028289;28;20064;-81
2022/10/26 01:19:35;;;;;;;15.10;10.65;;;1.20;96.50;;;;;;5027793;28;20030;-80
2022/10/26 01:22:09;;;;;;;16.10;11.05;;;1.30;96.50;;;;;;5032751;28;20021;-81
2022/10/26 01:24:53;;;;;;;17.77;12.10;;;1.40;96.40;;;;;;5032473;28;20029;-82
2022/10/26 01:27:48;;;;;;;15.90;10.27;;;1.40;96.40;;;;;;5034358;28;20037;-81
2022/10/26 01:30:29;;;;;;;19.45;10.68;;;1.50;96.30;;;;;;5033443;28;20025;-80
2022/10/26 01:33:17;;;;;;;14.38;9.75;;;1.50;96.30;;;;;;5029805;28;20067;-80
2022/10/26 01:36:06;;;;;;;20.42;11.05;;;1.60;96.30;;;;;;5037729;28;20457;-80
2022/10/26 01:38:38;;;;;;;16.63;9.90;;;1.60;96.20;;;;;;5032699;28;20536;-81
2022/10/26 01:41:31;;;;;;;13.27;9.23;;;1.70;96.20;;;;;;5032598;28;20034;-80
2022/10/26 01:44:22;;;;;;;14.13;10.05;;;1.80;96.10;;;;;;5022620;28;20112;-81
2022/10/26 01:46:51;;;;;;;15.63;9.60;;;1.80;95.90;;;;;;5014637;28;20064;-81
2022/10/26 01:49:21;;;;;;;16.80;9.95;;;1.90;95.90;;;;;;5032370;28;20826;-82
2022/10/26 01:51:49;;;;;;;19.25;10.75;;;1.90;95.70;;;;;;5032045;28;20077;-80
2022/10/26 01:54:15;;;;;;;17.50;9.80;;;1.90;95.70;;;;;;5032676;28;20013;-81
2022/10/26 01:56:45;;;;;;;15.10;9.43;;;1.90;95.60;;;;;;5039026;28;20033;-81
2022/10/26 01:59:11;;;;;;;11.80;9.48;;;2.00;95.60;;;;;;5038626;28;20071;-82
2022/10/26 02:01:47;;;;;;;13.90;10.75;;;2.00;95.50;;;;;;5038708;28;20048;-81
2022/10/26 02:04:46;;;;;;;16.15;9.77;;;2.00;95.40;;;;;;5038643;28;20097;-81
2022/10/26 02:07:47;;;;;;;14.38;9.10;;;2.00;95.40;;;;;;5038776;28;20017;-82
2022/10/26 02:10:31;;;;;;;13.75;7.97;;;2.00;95.30;;;;;;5006948;28;20046;-80
2022/10/26 02:13:15;;;;;;;14.00;8.63;;;1.90;95.20;;;;;;5035694;28;20021;-82
2022/10/26 02:15:47;;;;;;;16.13;9.43;;;1.80;95.20;;;;;;5033982;28;20609;-80
2022/10/26 02:18:22;;;;;;;10.13;7.97;;;1.70;95.20;;;;;;5038703;28;20088;-82
2022/10/26 02:20:52;;;;;;;21.55;9.25;;;1.60;95.20;;;;;;5039173;28;20096;-81
2022/10/26 02:23:20;;;;;;;12.65;8.40;;;1.50;95.20;;;;;;5038919;28;20067;-80
2022/10/26 02:25:50;;;;;;;15.32;8.55;;;1.50;95.40;;;;;;5038885;28;20449;-81
2022/10/26 02:28:24;;;;;;;15.27;8.52;;;1.40;95.50;;;;;;5038566;28;20056;-81
2022/10/26 02:30:54;;;;;;;14.00;9.40;;;1.30;95.60;;;;;;5045332;28;20078;-80
2022/10/26 02:33:23;;;;;;;12.65;8.40;;;1.30;95.70;;;;;;5033959;28;20026;-81
2022/10/26 02:35:53;;;;;;;17.13;9.82;;;1.20;95.80;;;;;;5030089;28;20028;-81
2022/10/26 02:38:20;;;;;;;10.05;8.30;;;1.10;95.90;;;;;;5033839;28;20037;-81
2022/10/26 02:40:51;;;;;;;16.10;9.77;;;1.10;96.00;;;;;;5037338;28;20075;-80
2022/10/26 02:43:20;;;;;;;15.32;9.55;;;1.10;96.00;;;;;;5040945;28;20124;-81
2022/10/26 02:45:55;;;;;;;11.98;8.57;;;1.00;96.10;;;;;;5042912;28;20045;-81
2022/10/26 02:48:22;;;;;;;22.42;9.90;;;1.00;96.30;;;;;;5038287;28;20026;-80
2022/10/26 02:51:10;;;;;;;12.15;8.88;;;1.00;96.40;;;;;;5038156;28;20080;-80
2022/10/26 02:53:43;;;;;;;13.50;9.57;;;1.00;96.50;;;;;;5038509;28;20044;-80
2022/10/26 02:56:23;;;;;;;13.77;8.50;;;1.00;96.50;;;;;;5038491;28;20026;-80
2022/10/26 02:58:54;;;;;;;13.65;8.50;;;1.00;96.60;;;;;;5039989;28;20037;-80
2022/10/26 03:01:20;;;;;;;14.68;8.70;;;1.10;96.70;;;;;;5041225;28;20013;-81
2022/10/26 03:03:47;;;;;;;12.40;8.73;;;1.10;96.70;;;;;;5038425;28;20029;-81
2022/10/26 03:06:21;;;;;;;13.63;8.43;;;1.20;96.70;;;;;;5036392;28;20565;-80
2022/10/26 03:08:47;;;;;;;17.67;9.13;;;1.20;96.70;;;;;;5034428;28;20033;-82
2022/10/26 03:11:13;;;;;;;13.25;9.20;;;1.20;96.60;;;;;;5035304;28;20077;-81
2022/10/26 03:13:38;;;;;;;13.10;7.75;;;1.30;96.60;;;;;;5035256;28;20030;-79
2022/10/26 03:16:04;;;;;;;16.33;9.00;;;1.30;96.40;;;;;;5034871;28;20497;-81
2022/10/26 03:18:30;;;;;;;11.25;8.77;;;1.30;96.40;;;;;;5034858;28;20041;-80
2022/10/26 03:20:56;;;;;;;12.05;8.82;;;1.30;96.40;;;;;;5034814;28;20492;-82
2022/10/26 03:23:22;;;;;;;17.30;9.10;;;1.30;96.40;;;;;;5034580;28;20103;-80
2022/10/26 03:25:47;;;;;;;14.23;8.18;;;1.30;96.40;;;;;;5034279;28;20115;-81
2022/10/26 03:28:13;;;;;;;11.55;7.90;;;1.40;96.40;;;;;;5033974;28;20025;-81
2022/10/26 03:30:39;;;;;;;12.23;8.43;;;1.30;96.30;;;;;;5038557;28;20021;-82
2022/10/26 03:33:05;;;;;;;11.55;8.80;;;1.40;96.30;;;;;;5031447;28;20018;-80
2022/10/26 03:35:31;;;;;;;12.05;8.25;;;1.40;96.30;;;;;;5023976;28;20375;-81
2022/10/26 03:37:57;;;;;;;12.68;8.00;;;1.40;96.30;;;;;;5034311;28;20049;-81
2022/10/26 03:40:23;;;;;;;17.48;9.13;;;1.40;96.20;;;;;;5024824;28;20014;-80
2022/10/26 03:42:49;;;;;;;13.68;7.88;;;1.50;96.30;;;;;;5029108;28;20060;-81
2022/10/26 03:45:14;;;;;;;10.82;7.72;;;1.50;96.20;;;;;;5034947;28;20488;-81
2022/10/26 03:47:48;;;;;;;13.10;9.13;;;1.60;96.20;;;;;;5030022;28;20057;-80
2022/10/26 03:50:17;;;;;;;14.05;8.95;;;1.70;96.10;;;;;;5049308;28;20072;-81
2022/10/26 03:52:43;;;;;;;10.52;8.18;;;1.80;96.00;;;;;;5035215;28;20033;-80
2022/10/26 03:55:09;;;;;;;12.30;8.18;;;1.80;96.00;;;;;;5037523;28;20018;-81
2022/10/26 03:57:42;;;;;;;12.07;8.32;;;1.90;95.80;;;;;;5038388;28;20030;-81
2022/10/26 04:00:10;;;;;;;16.60;8.63;;;1.90;95.60;;;;;;5035964;28;20021;-82
2022/10/26 04:02:36;;;;;;;15.10;9.32;;;1.90;95.60;;;;;;5034992;28;20045;-80
2022/10/26 04:05:02;;;;;;;14.90;8.40;;;2.00;95.60;;;;;;5037309;28;20026;-80
2022/10/26 04:07:28;;;;;;;13.80;8.68;;;2.00;95.40;;;;;;5036513;28;20597;-80
2022/10/26 04:09:53;;;;;;;11.70;8.35;;;1.90;95.20;;;;;;5034701;28;20033;-81
2022/10/26 04:12:19;;;;;;;15.15;8.43;;;1.90;95.20;;;;;;5035172;28;20021;-80
2022/10/26 04:14:45;;;;;;;14.40;9.32;;;1.80;95.30;;;;;;5035854;28;20026;-80
2022/10/26 04:17:11;;;;;;;14.20;8.40;;;1.90;95.40;;;;;;5034998;28;20048;-82
2022/10/26 04:19:37;;;;;;;12.88;7.95;;;1.90;95.30;;;;;;5034230;28;20065;-80
2022/10/26 04:22:03;;;;;;;13.00;8.75;;;2.00;95.20;;;;;;5021269;28;20454;-79
2022/10/26 04:24:29;;;;;;;14.25;9.02;;;1.90;95.20;;;;;;5031582;28;20025;-82
2022/10/26 04:26:55;;;;;;;12.88;7.65;;;2.00;95.20;;;;;;5034296;28;20024;-82
2022/10/26 04:29:20;;;;;;;13.20;8.98;;;2.00;95.10;;;;;;5034959;28;20026;-81
2022/10/26 04:31:46;;;;;;;17.77;8.75;;;2.00;95.10;;;;;;5040099;28;20115;-80
2022/10/26 04:34:15;;;;;;;14.82;9.55;;;2.10;95.10;;;;;;5035167;28;20036;-81
2022/10/26 04:36:41;;;;;;;11.55;7.97;;;2.20;95.10;;;;;;5033483;28;20475;-80
2022/10/26 04:39:06;;;;;;;13.98;8.90;;;2.20;95.00;;;;;;5033267;28;20044;-81
2022/10/26 04:41:32;;;;;;;17.50;9.00;;;2.30;94.90;;;;;;5033464;28;20052;-84
2022/10/26 04:43:58;;;;;;;14.05;8.68;;;2.40;95.10;;;;;;5033039;28;20080;-82
2022/10/26 04:46:24;;;;;;;14.90;8.60;;;2.40;94.60;;;;;;5032867;28;20032;-81
2022/10/26 04:48:50;;;;;;;20.40;9.50;;;2.40;94.50;;;;;;5033239;28;20108;-80
2022/10/26 04:51:16;;;;;;;15.48;10.50;;;2.40;94.40;;;;;;5033281;28;20136;-81
2022/10/26 04:53:41;;;;;;;12.93;8.32;;;2.40;94.30;;;;;;5033247;28;20225;-81
2022/10/26 04:56:08;;;;;;;12.02;8.57;;;2.50;94.30;;;;;;5025104;28;20080;-82
2022/10/26 04:58:34;;;;;;;13.63;9.88;;;2.50;94.30;;;;;;5027319;28;20033;-81
2022/10/26 05:01:01;;;;;;;17.63;8.63;;;2.60;94.30;;;;;;5028570;28;20036;-82
2022/10/26 05:03:27;;;;;;;17.38;9.60;;;2.60;94.10;;;;;;5025327;28;20056;-80
2022/10/26 05:05:56;;;;;;;13.23;8.68;;;2.70;94.00;;;;;;5032741;28;20048;-82
2022/10/26 05:08:22;;;;;;;16.08;8.68;;;2.70;93.90;;;;;;5032653;28;20131;-82
2022/10/26 05:10:49;;;;;;;15.10;8.35;;;2.70;93.80;;;;;;5032604;28;20444;-80
2022/10/26 05:13:15;;;;;;;15.13;10.00;;;2.70;93.70;;;;;;5032636;28;20020;-80
2022/10/26 05:15:41;;;;;;;15.57;9.65;;;2.70;93.60;;;;;;5029153;28;20506;-81
2022/10/26 05:18:08;;;;;;;11.23;8.25;;;2.70;93.70;;;;;;5032468;28;20037;-80
2022/10/26 05:20:35;;;;;;;15.38;8.82;;;2.70;93.60;;;;;;5032618;28;20490;-80
2022/10/26 05:23:03;;;;;;;13.95;9.13;;;2.70;93.60;;;;;;5032256;28;20359;-79
2022/10/26 05:25:32;;;;;;;13.75;8.02;;;2.70;93.60;;;;;;5032625;28;20025;-80
2022/10/26 05:28:00;;;;;;;16.88;8.48;;;2.70;93.60;;;;;;5032341;28;20067;-80
2022/10/26 05:30:26;;;;;;;13.25;8.63;;;2.80;93.40;;;;;;5030819;28;20088;-81
2022/10/26 05:32:56;;;;;;;15.93;8.07;;;2.80;93.20;;;;;;5032489;28;20034;-81
2022/10/26 05:35:23;;;;;;;11.85;7.57;;;2.80;93.10;;;;;;5032629;28;20452;-80
2022/10/26 05:37:49;;;;;;;14.98;8.80;;;2.80;93.20;;;;;;5033187;28;20030;-83
2022/10/26 05:40:16;;;;;;;11.07;7.82;;;2.80;93.10;;;;;;5033207;28;20088;-81
2022/10/26 05:42:42;;;;;;;10.52;7.70;;;2.80;93.00;;;;;;5033016;28;20498;-83
2022/10/26 05:45:09;;;;;;;14.32;8.40;;;2.80;93.00;;;;;;5033509;28;20043;-82
2022/10/26 05:47:43;;;;;;;14.68;9.43;;;2.80;93.20;;;;;;5033287;28;20021;-82
2022/10/26 05:50:10;;;;;;;18.42;9.00;;;2.90;93.20;;;;;;5032531;28;20026;-81
2022/10/26 05:52:46;;;;;;;16.00;10.33;;;2.90;93.10;;;;;;5032347;28;20040;-81
2022/10/26 05:55:15;;;;;;;14.55;9.82;;;3.00;93.00;;;;;;5029076;28;20276;-79
2022/10/26 05:57:42;;;;;;;12.25;8.25;;;3.00;92.80;;;;;;5034293;28;20056;-82
2022/10/26 06:00:13;;;;;;;14.55;7.85;;;3.10;92.70;;;;;;5038688;28;20025;-81
2022/10/26 06:02:55;;;;;;;14.77;8.70;;;3.00;92.60;;;;;;5040167;28;20505;-81
2022/10/26 06:05:25;;;;;;;11.90;7.80;;;3.10;92.70;;;;;;5035275;28;20120;-81
2022/10/26 06:07:51;;;;;;;10.55;8.02;;;3.30;92.70;;;;;;5031689;28;20021;-84
2022/10/26 06:10:17;;;;;;;12.27;8.50;;;3.40;92.40;;;;;;5026965;28;20018;-81
2022/10/26 06:12:44;;;;;;;13.75;8.55;;;3.50;92.10;;;;;;5020578;28;20033;-82
2022/10/26 06:15:19;;;;;;;12.63;7.85;;;3.60;92.00;;;;;;5022178;28;20033;-81
2022/10/26 06:17:55;;;;;;;13.10;9.05;;;3.70;91.80;;;;;;5030915;28;20451;-82
2022/10/26 06:20:38;;;;;;;12.30;8.52;;;3.80;91.80;;;;;;5030748;28;20332;-81
2022/10/26 06:23:23;;;;;;;15.65;9.38;;;3.80;91.50;;;;;;5031896;28;20053;-82
2022/10/26 06:26:13;;;;;;;15.40;8.85;;;3.90;91.60;;;;;;5033106;28;20018;-83
2022/10/26 06:28:57;;;;;;;14.88;9.18;;;3.90;91.10;;;;;;5033547;28;20027;-83
2022/10/26 06:31:23;;;;;;;12.27;8.55;;;3.90;91.10;;;;;;5026323;28;20029;-80
2022/10/26 06:33:50;;;;;;;14.70;8.13;;;3.90;91.20;;;;;;5018052;28;20056;-82
2022/10/26 06:36:29;;;;;;;14.98;8.70;;;4.00;91.20;;;;;;5025804;28;20376;-81
2022/10/26 06:39:06;;;;;;;19.10;8.85;;;4.10;91.10;;;;;;5032311;28;20056;-82
2022/10/26 06:41:33;;;;;;;16.10;8.77;;;4.20;90.90;;;;;;5035364;28;20056;-80
2022/10/26 06:44:01;;;;;;;19.23;7.97;;;4.30;90.80;;;;;;5038711;28;20482;-83
2022/10/26 06:46:30;;;;;;;;;;;4.50;90.60;;;;;;5025604;28;20026;-81
2022/10/26 06:49:19;;;;;;;14.80;8.57;;;4.60;90.70;;;;;;5035067;28;19920;-80
2022/10/26 06:52:00;;;;;;;12.68;8.18;;;4.70;90.30;;;;;;5035553;28;20045;-81
2022/10/26 06:54:50;;;;;;;16.20;9.48;;;4.80;90.10;;;;;;5035359;28;20117;-82
2022/10/26 06:57:18;;;;;;;14.88;8.73;;;4.90;90.00;;;;;;5035247;28;20028;-82
2022/10/26 06:59:50;;;;;;;20.98;8.75;;;4.70;88.50;;;;;;5030660;28;20034;-81
2022/10/26 07:02:16;;;;;;;17.40;8.68;;;4.60;89.00;;;;;;5032024;28;20022;-81
2022/10/26 07:04:43;;;;;;;16.02;9.32;;;4.70;89.30;;;;;;5027020;28;20096;-83
2022/10/26 07:07:17;;;;;;;15.95;9.18;;;4.80;88.80;;;;;;5033742;28;20081;-82
2022/10/26 07:09:43;;;;;;;21.13;8.70;;;5.00;88.50;;;;;;5039393;28;20040;-81
2022/10/26 07:12:09;;;;;;;12.95;10.65;;;5.20;87.90;;;;;;5038289;28;20026;-82
2022/10/26 07:14:34;;;;;;;16.35;8.30;;;5.40;87.00;;;;;;5031142;28;20030;-81
2022/10/26 07:17:00;;;;;;;17.05;8.32;;;5.60;86.40;;;;;;5027725;28;20022;-82
2022/10/26 07:19:26;;;;;;;10.07;8.63;;;5.80;85.50;;;;;;5030900;28;20132;-82
2022/10/26 07:21:58;;;;;;;13.23;9.80;;;5.90;85.50;;;;;;5025214;28;20033;-82
2022/10/26 07:24:24;;;;;;;19.27;8.80;;;6.10;84.50;;;;;;5033186;28;20029;-82
2022/10/26 07:26:50;;;;;;;11.15;8.75;;;6.30;84.20;;;;;;5030548;28;20030;-83
2022/10/26 07:29:17;;;;;;;15.30;8.50;;;6.40;83.30;;;;;;5030400;28;20033;-81
2022/10/26 07:31:43;;;;;;;15.70;7.90;;;6.40;82.60;;;;;;5031077;28;20076;-82
2022/10/26 07:34:09;;;;;;;11.75;7.50;;;6.40;82.50;;;;;;5038189;28;20036;-85
2022/10/26 07:36:35;;;;;;;17.48;9.73;;;6.50;82.30;;;;;;5040230;28;20049;-83
2022/10/26 07:39:02;;;;;;;16.25;9.13;;;6.70;81.90;;;;;;5033923;28;20068;-80
2022/10/26 07:41:32;;;;;;;12.70;8.80;;;7.00;81.20;;;;;;5030348;28;20025;-82
2022/10/26 07:43:57;;;;;;;16.30;8.30;;;7.30;80.50;;;;;;5025885;28;20065;-82
2022/10/26 07:46:24;;;;;;;19.13;9.35;;;7.50;79.40;;;;;;5036552;28;20463;-82
2022/10/26 07:48:50;;;;;;;14.97;8.67;;;7.70;78.40;;;;;;5035924;28;20025;-84
2022/10/26 07:51:16;;;;;;;11.18;8.10;;;7.70;77.50;;;;;;5030538;28;20056;-83
2022/10/26 07:53:42;;;;;;;11.13;7.82;;;7.60;77.70;;;;;;5034668;28;20025;-82
2022/10/26 07:56:09;;;;;;;14.50;9.00;;;7.70;77.90;;;;;;5039448;28;20020;-81
2022/10/26 07:58:35;;;;;;;16.10;10.40;;;7.90;77.00;;;;;;5042729;28;20034;-82
2022/10/26 08:01:06;;;;;;;11.65;8.65;;;8.20;76.60;;;;;;5036038;28;20050;-84
2022/10/26 08:03:32;;;;;;;11.20;8.30;;;8.50;75.40;;;;;;5028977;28;20064;-84
2022/10/26 08:05:58;;;;;;;10.55;7.68;;;8.60;74.00;;;;;;5035034;28;20049;-84
2022/10/26 08:08:24;;;;;;;10.98;7.57;;;8.60;73.50;;;;;;5035184;28;20487;-81
2022/10/26 08:10:51;;;;;;;12.43;8.77;;;8.60;73.10;;;;;;5033631;28;20105;-83
2022/10/26 08:13:20;;;;;;;12.82;7.35;;;8.60;73.10;;;;;;5030601;28;20053;-82
2022/10/26 08:15:46;;;;;;;12.93;8.13;;;8.60;73.10;;;;;;5030443;28;20069;-82
2022/10/26 08:18:12;;;;;;;12.82;8.80;;;8.40;72.80;;;;;;5029658;28;20128;-84
2022/10/26 08:20:38;;;;;;;14.80;8.82;;;8.40;73.30;;;;;;5028269;28;20052;-82
2022/10/26 08:23:05;;;;;;;13.07;8.80;;;8.60;73.10;;;;;;5033815;28;20025;-83
2022/10/26 08:25:34;;;;;;;16.95;8.07;;;8.70;72.20;;;;;;5034885;28;20101;-82
2022/10/26 08:28:01;;;;;;;16.20;8.00;;;8.80;72.10;;;;;;5031052;28;20041;-84
2022/10/26 08:30:28;;;;;;;17.90;9.30;;;8.90;72.10;;;;;;5025645;28;20025;-84
2022/10/26 08:33:03;;;;;;;17.67;8.05;;;8.90;71.80;;;;;;5035092;28;20018;-82
2022/10/26 08:35:29;;;;;;;12.38;8.70;;;8.80;71.50;;;;;;5036500;28;20028;-83
2022/10/26 08:37:55;;;;;;;9.10;7.68;;;8.60;71.50;;;;;;5035903;28;20614;-83
2022/10/26 08:40:30;;;;;;;13.48;8.20;;;8.60;71.90;;;;;;5030375;28;20022;-82
2022/10/26 08:43:21;;;;;;;21.27;9.75;;;8.70;72.10;;;;;;5028162;28;20486;-83
2022/10/26 08:45:56;;;;;;;9.25;7.47;;;8.90;72.10;;;;;;5033992;28;20031;-83
2022/10/26 08:48:27;;;;;;;15.10;8.45;;;9.30;71.40;;;;;;5033426;28;20021;-84
2022/10/26 08:51:01;;;;;;;15.43;8.13;;;9.70;70.10;;;;;;5033130;28;20542;-82
2022/10/26 08:53:30;;;;;;;12.10;8.02;;;10.10;69.50;;;;;;5034490;28;20087;-83
2022/10/26 08:56:00;;;;;;;14.93;11.05;;;10.60;67.80;;;;;;5032922;28;20059;-82
2022/10/26 08:58:36;;;;;;;13.18;9.00;;;10.90;66.20;;;;;;5033539;28;20091;-83
2022/10/26 09:01:04;;;;;;;12.95;7.53;;;11.40;65.50;;;;;;5034255;28;20044;-83
2022/10/26 09:03:30;;;;;;;15.00;8.07;;;;;;;;;;5035043;28;20053;-81
2022/10/26 09:06:18;;;;;;;13.65;7.75;;;12.40;64.30;;;;;;5037978;28;20434;-82
2022/10/26 09:08:56;;;;;;;8.40;6.60;;;;;;;;;;5038188;28;20031;-83
2022/10/26 09:11:22;;;;;;;12.23;7.70;;;;;;;;;;5033568;28;20017;-82
2022/10/26 09:13:54;;;;;;;14.07;7.57;;;;;;;;;;5033506;28;20026;-83
2022/10/26 09:16:36;;;;;;;8.65;6.25;;;;;;;;;;5033498;28;20017;-82
2022/10/26 09:19:08;;;;;;;13.15;7.70;;;;;;;;;;5036236;28;20038;-82
2022/10/26 09:21:38;;;;;;;10.15;6.80;;;;;;;;;;5036936;28;20029;-83
2022/10/26 09:24:22;;;;;;;12.00;7.88;;;;;;;;;;5032772;28;20021;-85
2022/10/26 09:26:48;;;;;;;14.02;8.02;;;;;;;;;;5034227;28;20021;-82
2022/10/26 09:29:14;;;;;;;14.07;8.35;;;;;;;;;;5034756;28;20099;-82
2022/10/26 09:31:42;;;;;;;11.95;6.60;;;;;;;;;;5037215;28;20052;-81
2022/10/26 09:34:14;;;;;;;8.50;6.13;;;;;;;;;;5037515;28;20052;-83
2022/10/26 09:36:40;;;;;;;14.48;7.13;;;14.30;58.80;;;;;;5032922;28;20022;-81
2022/10/26 09:39:25;;;;;;;16.75;7.22;;;10.00;64.30;;;;;;5025220;28;20120;-83
2022/10/26 09:42:32;;;;;;;13.65;7.38;;;10.50;63.80;;;;;;5033796;28;20028;-83
2022/10/26 09:45:02;;;;;;;;;;;11.20;62.80;;;;;;5019533;28;20048;-82
2022/10/26 09:47:39;;;;;;;9.93;7.60;;;11.80;62.40;;;;;;5024972;28;19982;-83
2022/10/26 09:50:11;;;;;;;14.27;7.07;;;12.30;60.20;;;;;;5030980;28;20079;-84
2022/10/26 09:52:37;;;;;;;13.77;6.95;;;12.20;59.30;;;;;;5033570;28;20080;-81
2022/10/26 09:55:03;;;;;;;11.23;6.82;;;12.30;59.20;;;;;;5034581;28;20017;-83
2022/10/26 09:57:29;;;;;;;11.85;7.22;;;12.50;58.30;;;;;;5040691;28;20052;-82
2022/10/26 09:59:56;;;;;;;15.52;7.15;;;12.60;58.10;;;;;;5036248;28;20029;-83
2022/10/26 10:02:45;;;;;;;12.03;6.53;;;12.80;57.40;;;;;;5033962;28;20048;-82
2022/10/26 10:05:25;;;;;;;9.82;5.68;;;12.90;57.50;;;;;;5033704;28;20025;-83
2022/10/26 10:07:51;;;;;;;10.20;5.85;;;12.60;56.30;;;;;;5033255;28;20617;-82
2022/10/26 10:10:19;;;;;;;10.40;5.95;;;11.60;57.10;;;;;;5033457;28;20028;-82
2022/10/26 10:12:45;;;;;;;;;;;10.50;59.50;;;;;;5032958;28;20017;-82
2022/10/26 10:15:24;;;;;;;9.38;6.35;;;10.00;60.70;;;;;;5032910;28;19909;-82
2022/10/26 10:17:57;;;;;;;9.43;6.80;;;9.60;62.00;;;;;;5032660;28;20026;-84
2022/10/26 10:20:31;;;;;;;11.48;6.63;;;9.40;62.80;;;;;;5028747;28;20034;-82
2022/10/26 10:23:02;;;;;;;10.40;6.70;;;9.40;63.50;;;;;;5034671;28;20594;-83
2022/10/26 10:25:38;;;;;;;9.07;5.60;;;9.30;63.80;;;;;;5029173;28;20124;-82
2022/10/26 10:28:22;;;;;;;9.80;7.50;;;9.20;63.90;;;;;;5017896;28;20018;-84
2022/10/26 10:31:18;;;;;;;11.55;7.07;;;9.10;64.70;;;;;;5045128;28;20029;-82
2022/10/26 10:33:45;;;;;;;7.93;5.78;;;9.00;65.00;;;;;;5036490;28;20111;-83
2022/10/26 10:36:19;;;;;;;15.67;6.50;;;8.90;65.10;;;;;;5036215;28;20026;-83
2022/10/26 10:38:47;;;;;;;9.13;5.18;;;8.90;65.30;;;;;;5040328;28;20033;-82
2022/10/26 10:41:35;;;;;;;13.20;5.65;;;9.00;65.50;;;;;;5039784;28;20087;-82
2022/10/26 10:44:15;;;;;;;14.70;6.63;;;8.50;65.70;;;;;;5023521;28;20026;-83
2022/10/26 10:46:41;;;;;;;11.52;5.13;;;8.20;66.90;;;;;;5035021;28;20021;-84
2022/10/26 10:49:19;;;;;;;7.18;5.35;;;7.90;67.60;;;;;;5036421;28;20032;-83
2022/10/26 10:51:45;;;;;;;;;;;7.70;68.60;;;;;;5036137;28;20120;-81
2022/10/26 10:54:34;;;;;;;7.53;4.78;;;7.70;68.50;;;;;;5036124;28;19967;-81
2022/10/26 10:57:10;;;;;;;7.93;4.97;;;7.80;68.70;;;;;;5036437;28;20059;-83
2022/10/26 11:00:03;;;;;;;10.73;6.25;;;7.80;69.20;;;;;;5036571;28;20033;-84
2022/10/26 11:02:35;;;;;;;13.30;4.97;;;8.00;69.00;;;;;;5033174;28;20068;-81
2022/10/26 11:05:34;;;;;;;11.40;6.47;;;8.10;68.70;;;;;;5035807;28;20029;-84
2022/10/26 11:08:11;;;;;;;11.40;4.72;;;8.00;68.90;;;;;;5035380;28;20112;-81
2022/10/26 11:10:41;;;;;;;14.52;5.57;;;7.90;69.10;;;;;;5035200;28;20101;-83
2022/10/26 11:13:24;;;;;;;13.23;5.68;;;7.70;69.70;;;;;;5035468;28;20031;-82
2022/10/26 11:15:55;;;;;;;9.32;6.15;;;7.90;70.00;;;;;;5032817;28;20030;-82
2022/10/26 11:19:01;;;;;;;10.80;6.43;;;7.90;69.80;;;;;;5035772;28;20083;-81
2022/10/26 11:21:36;;;;;;;13.75;6.57;;;7.90;69.90;;;;;;5035086;28;20025;-82
2022/10/26 11:24:09;;;;;;;12.13;6.68;;;7.70;70.20;;;;;;5034815;28;20029;-82
2022/10/26 11:26:54;;;;;;;17.08;6.60;;;7.70;70.50;;;;;;5035939;28;20039;-82
2022/10/26 11:29:32;;;;;;;11.90;6.35;;;7.70;70.80;;;;;;5022010;28;20058;-83
2022/10/26 11:32:15;;;;;;;14.40;6.68;;;7.70;70.80;;;;;;5038806;28;20026;-81
2022/10/26 11:34:54;;;;;;;11.18;5.82;;;7.60;70.70;;;;;;5035089;28;20475;-83
2022/10/26 11:37:43;;;;;;;11.73;6.22;;;7.60;70.90;;;;;;5034901;28;20056;-82
2022/10/26 11:40:21;;;;;;;9.57;5.53;;;7.50;71.10;;;;;;5035091;28;20101;-84
2022/10/26 11:43:06;;;;;;;8.80;5.68;;;7.50;71.30;;;;;;5035361;28;20052;-84
2022/10/26 11:45:38;;;;;;;8.68;5.70;;;7.50;71.30;;;;;;5026139;28;20022;-84
2022/10/26 11:48:23;;;;;;;10.85;6.25;;;7.50;71.50;;;;;;5031419;28;20395;-83
2022/10/26 11:50:57;;;;;;;9.70;5.90;;;7.40;71.80;;;;;;5050346;28;20049;-86
2022/10/26 11:53:41;;;;;;;14.25;6.60;;;7.50;71.90;;;;;;5034877;28;20025;-82
2022/10/26 11:56:20;;;;;;;11.75;5.50;;;7.50;71.90;;;;;;5035035;28;20159;-83
2022/10/26 11:58:46;;;;;;;11.40;6.18;;;7.50;71.70;;;;;;5038756;28;20065;-82
2022/10/26 12:01:15;;;;;;;11.32;5.18;;;7.50;71.70;;;;;;5018930;28;20487;-81
2022/10/26 12:03:50;;;;;;;12.73;6.85;;;7.50;71.50;;;;;;5029909;28;20057;-83
2022/10/26 12:06:24;;;;;;;9.68;5.13;;;7.50;71.30;;;;;;5033811;28;20017;-84
2022/10/26 12:09:09;;;;;;;11.23;6.38;;;7.40;71.30;;;;;;5038896;28;20136;-82
2022/10/26 12:12:03;;;;;;;11.50;4.95;;;7.30;71.80;;;;;;5042355;28;20022;-82
2022/10/26 12:14:41;;;;;;;8.13;5.60;;;7.30;71.70;;;;;;5030145;28;20117;-81
2022/10/26 12:17:16;;;;;;;9.88;5.43;;;7.20;71.80;;;;;;5036979;28;20022;-82
2022/10/26 12:20:04;;;;;;;13.30;6.20;;;7.20;71.90;;;;;;5036194;28;20128;-83
2022/10/26 12:22:33;;;;;;;8.68;6.05;;;7.20;71.90;;;;;;5038587;28;20018;-81
2022/10/26 12:25:14;;;;;;;9.32;5.35;;;7.20;71.80;;;;;;5036519;28;20029;-83
2022/10/26 12:27:40;;;;;;;10.20;6.45;;;7.10;71.80;;;;;;5033195;28;20378;-83
2022/10/26 12:30:34;;;;;;;14.18;6.15;;;7.00;72.20;;;;;;5034218;28;20100;-82
2022/10/26 12:33:05;;;;;;;10.23;4.80;;;7.00;72.60;;;;;;5034599;28;20014;-83
2022/10/26 12:35:40;;;;;;;18.10;5.70;;;7.00;72.80;;;;;;5022520;28;20030;-82
2022/10/26 12:38:24;;;;;;;10.60;5.60;;;6.90;73.00;;;;;;5031377;28;20030;-83
2022/10/26 12:41:05;;;;;;;6.00;4.70;;;6.80;73.20;;;;;;5036195;28;20029;-82
2022/10/26 12:43:38;;;;;;;12.88;5.05;;;6.70;73.30;;;;;;5038157;28;20029;-83
2022/10/26 12:46:13;;;;;;;9.35;5.88;;;6.70;73.40;;;;;;5036705;28;20100;-82
2022/10/26 12:48:40;;;;;;;10.20;6.25;;;6.50;73.80;;;;;;5034992;28;20395;-82
2022/10/26 12:51:21;;;;;;;12.20;6.85;;;6.50;74.10;;;;;;5035964;28;20045;-81
2022/10/26 12:53:56;;;;;;;9.63;5.50;;;6.60;74.40;;;;;;5034212;28;20175;-83
2022/10/26 12:56:34;;;;;;;9.95;5.45;;;6.60;74.60;;;;;;5034101;28;20457;-81
2022/10/26 12:59:23;;;;;;;11.10;6.20;;;6.50;74.80;;;;;;5033130;28;20115;-82
2022/10/26 13:01:58;;;;;;;13.15;6.43;;;6.50;75.20;;;;;;5027504;28;20037;-85
2022/10/26 13:04:57;;;;;;;9.45;5.40;;;6.50;75.50;;;;;;5037606;28;20135;-83
2022/10/26 13:07:33;;;;;;;15.77;7.25;;;6.50;75.40;;;;;;5033095;28;20043;-82
2022/10/26 13:10:10;;;;;;;10.15;4.90;;;6.50;75.60;;;;;;5023257;28;20429;-82
2022/10/26 13:12:47;;;;;;;14.07;5.00;;;6.40;75.70;;;;;;5030848;28;20026;-84
2022/10/26 13:15:26;;;;;;;12.25;5.38;;;6.30;76.00;;;;;;5034892;28;20021;-82
2022/10/26 13:18:07;;;;;;;11.00;5.35;;;6.20;76.40;;;;;;5040572;28;20033;-82
2022/10/26 13:20:35;;;;;;;8.45;5.07;;;6.20;76.80;;;;;;5028060;28;20368;-84